Waterbury, VT (05676)

7:43 AM EST on February 09, 2016 (GMT -0500)
Bolton Valley | | Change Station
CLOSE
Current Station
Personal Weather Station
Location: Bolton, VT
Elevation: 2100 ft
Nearby Weather Stations

Elev 2100 ft 44.42 °N, 72.85 °W | Updated 49 seconds ago

Partly Cloudy
Partly Cloudy
13.7 °F
Feels Like 4 °F
N
6.0
Wind Variable Wind from SE
Gusts 7.0 mph

Today
High -- | Low -- °F
--% Chance of Precip.
Yesterday
High -- | Low -- °F
Precip. -- in
Pressure 29.75 in
Visibility 9.0 miles
Clouds Few 1800 ft
Mostly Cloudy 4000 ft
Windchill 4 °F
Dew Point 10 °F
Humidity 87%
Rainfall 0.00 in
Snow Depth Not available.
7:00 AM 5:11 PM
New Moon, 1% visible
METAR KMPV 091151Z AUTO 00000KT 9SM FEW018 BKN040 M08/M10 A2968 RMK AO2 SNE44 SLP073 P0000 60001 70005 T10831100 11083 21089 57009
Pressure 29.75 in
Visibility 9.0 miles
Clouds Few 1800 ft
Mostly Cloudy 4000 ft
Windchill 4 °F
Dew Point 10 °F
Humidity 87%
Rainfall 0.00 in
Snow Depth Not available.
7:00 AM 5:11 PM
New Moon, 1% visible
METAR KMPV 091151Z AUTO 00000KT 9SM FEW018 BKN040 M08/M10 A2968 RMK AO2 SNE44 SLP073 P0000 60001 70005 T10831100 11083 21089 57009

10-Day Weather Forecast

Almanac

Astronomy

Feb. 09, 2016 Rise Set
Actual Time
Civil Twilight
Nautical Twilight
Astronomical Twilight
Moon
Length of Visible Light
Length of Day
Tomorrow will be .
, % of the Moon is Illuminated

Today's Extremes

State Highs State Lows

Community

WunderPhotos

Upload Photos

1,891,589 photos uploaded!

WunderBlog® & News

Nearby

Air Quality

  Air Quality AQ Index Pollutant
Not available.

Snow Depth

Station Depth Elevation

Earthquake Activity

City Distance Mag. Time & Date
Minimum magnitude displayed is 2.5.

Coastal Water Temperatures

Place Temperature

Stations

Nearby Weather Stations

Station Location Temp. Windchill Dew Point Humidity Wind Precip. Elev Updated Type
                   

Watches & Warnings

There are currently no watches in effect.